Kernville, Oregon
Current Conditions -  °F | °C
As of 5:35 AM on Monday 29 Dec 2014 (Local Time) from KONP Reporting Station
Broken Clouds Broken Clouds  
Wind Chill: 37°   Ceiling: 6500
Heat Index: 45°   Visibility: 10mi
Dew Point: 34°   Wind: 16mph
Humidity: 66%   Direction: 310°NW
Pressure: 30.2"   Gusts: 24mph
Location:  44.9454°N, 123.861°W
Report Text: KONP 291335Z AUTO 31014G21KT 10SM SCT045 BKN065 07/01 A3020 RMK AO2
Loading
Personal Weather Stations






























Interactive Weather Map New forecast layout! Learn more

10-Day Weather Forecast

Advertisements
Track Severe Weather on mobile